Forside
METAR-TAF:

METAR-TAF

Lufthavne :

Schoolcraft County Airport

Manistique, Michigan, USA

Breddekreds: 45-58-29N, længdekreds: 086-10-19W, højde: 209 m

Aktuelle vejr

Denne rapport blev lavet for 24 minutter siden, kl. 16:55 UTC
Vind 12 kt fra nordnordvest med vindstød på up til 17 kt
Temperatur 16°C
Fugtighed 72%
Tryk 1020 hPa
Sigt: 16.1 km
Overskyet i en højde af 2200 ft

METAR: KISQ 061655Z AUTO 34012G17KT 10SM OVC022 16/11 A3012 RMK AO2 T01590106

Tid: 13:19 (17:19 UTC)


TAF: fraværende

Vejrobservationer og prognoser fra mere end 4000 lufthavne (METAR og TAF).

De gule og røde prikker repræsenterer de meteorologiske stationer.

Flyt musen over at se navnet på stationen.

Så klik over at se vejr observationer og prognoser.

At skifte det kort: Klik på de grønne knapper med et sort kors for at zoome ind; på den grønne knap med en bindestreg for at zoome ud; eller på de grønne pile for tilstødende kort.


METAR-TAF: